DNO6714 HKJK-HDAM
Flight info
| Callsign | DNO6714 |
|---|---|
| Flight time | 2h 7m |
| Altitude | 35000 |
| Route | ATUDU1D WAV UM997 ASTAR ASTAR1R |
| Aircraft | B77L/H-SDE1E2E3FGHIJ2J3J4J5M1RWXY/LB1D1 |
Departure
| Time | 2026-04-26 17:12 |
|---|---|
| Airport | Jomo Kenyatta International Airport (HKJK) |
Arrival
| Time | 2026-04-26 19:20 |
|---|---|
| Airport | Djibouti-Ambouli Airport (HDAM) |
| Time | Latitude | Longitude | Altitude | Speed | Heading |
|---|---|---|---|---|---|
| 2026-04-26 16:43 | -1.33274 | 36.91705 | 5329 ft | 0 kts | 144° |
| 2026-04-26 16:53 | -1.33275 | 36.91705 | 5329 ft | 0 kts | 144° |
| 2026-04-26 17:00 | -1.33249 | 36.91687 | 5352 ft | 4 kts | 144° |
| 2026-04-26 17:00 | -1.33213 | 36.91655 | 5352 ft | 4 kts | 110° |
| 2026-04-26 17:00 | -1.33210 | 36.91630 | 5352 ft | 4 kts | 73° |
| 2026-04-26 17:01 | -1.33221 | 36.91608 | 5353 ft | 4 kts | 53° |
| 2026-04-26 17:01 | -1.33238 | 36.91587 | 5352 ft | 4 kts | 49° |
| 2026-04-26 17:01 | -1.33251 | 36.91572 | 5351 ft | 0 kts | 53° |
| 2026-04-26 17:04 | -1.33250 | 36.91573 | 5351 ft | 2 kts | 53° |
| 2026-04-26 17:04 | -1.33214 | 36.91615 | 5353 ft | 10 kts | 43° |
| 2026-04-26 17:04 | -1.33161 | 36.91659 | 5348 ft | 10 kts | 39° |
| 2026-04-26 17:04 | -1.33115 | 36.91710 | 5349 ft | 10 kts | 53° |
| 2026-04-26 17:05 | -1.33093 | 36.91739 | 5349 ft | 0 kts | 53° |
| 2026-04-26 17:05 | -1.33091 | 36.91742 | 5349 ft | 4 kts | 53° |
| 2026-04-26 17:05 | -1.33061 | 36.91782 | 5350 ft | 7 kts | 54° |
| 2026-04-26 17:05 | -1.33027 | 36.91814 | 5355 ft | 7 kts | 22° |
| 2026-04-26 17:06 | -1.32982 | 36.91805 | 5357 ft | 7 kts | 333° |
| 2026-04-26 17:06 | -1.32942 | 36.91780 | 5358 ft | 7 kts | 326° |
| 2026-04-26 17:06 | -1.32903 | 36.91753 | 5359 ft | 7 kts | 325° |
| 2026-04-26 17:06 | -1.32865 | 36.91726 | 5358 ft | 4 kts | 324° |
| 2026-04-26 17:07 | -1.32852 | 36.91717 | 5359 ft | 1 kts | 324° |
| 2026-04-26 17:07 | -1.32851 | 36.91716 | 5359 ft | 0 kts | 324° |
| 2026-04-26 17:09 | -1.32845 | 36.91711 | 5355 ft | 4 kts | 324° |
| 2026-04-26 17:09 | -1.32796 | 36.91676 | 5357 ft | 6 kts | 324° |
| 2026-04-26 17:09 | -1.32769 | 36.91658 | 5357 ft | 4 kts | 339° |
| 2026-04-26 17:10 | -1.32739 | 36.91673 | 5358 ft | 5 kts | 40° |
| 2026-04-26 17:10 | -1.32723 | 36.91690 | 5355 ft | 0 kts | 51° |
| 2026-04-26 17:10 | -1.32720 | 36.91693 | 5355 ft | 0 kts | 51° |
| 2026-04-26 17:10 | -1.32717 | 36.91697 | 5354 ft | 2 kts | 51° |
| 2026-04-26 17:11 | -1.32715 | 36.91699 | 5354 ft | 1 kts | 51° |
| 2026-04-26 17:11 | -1.32630 | 36.91814 | 5350 ft | 55 kts | 54° |
| 2026-04-26 17:12 | -1.31453 | 36.93435 | 5472 ft | 209 kts | 54° |
| 2026-04-26 17:12 | -1.30584 | 36.94599 | 6606 ft | 205 kts | 54° |
| 2026-04-26 17:13 | -1.29825 | 36.97378 | 7683 ft | 233 kts | 85° |
| 2026-04-26 17:13 | -1.29665 | 36.99093 | 7873 ft | 264 kts | 85° |
| 2026-04-26 17:13 | -1.29267 | 37.02910 | 9212 ft | 284 kts | 85° |
| 2026-04-26 17:14 | -1.29049 | 37.04887 | 10062 ft | 288 kts | 84° |
| 2026-04-26 17:14 | -1.28582 | 37.09029 | 11139 ft | 317 kts | 84° |
| 2026-04-26 17:14 | -1.28329 | 37.11236 | 11153 ft | 319 kts | 84° |
| 2026-04-26 17:15 | -1.27387 | 37.15542 | 12308 ft | 322 kts | 60° |
| 2026-04-26 17:15 | -1.25965 | 37.17259 | 13187 ft | 322 kts | 45° |
| 2026-04-26 17:15 | -1.24343 | 37.18829 | 13999 ft | 325 kts | 45° |
| 2026-04-26 17:16 | -1.22708 | 37.20391 | 14775 ft | 326 kts | 44° |
| 2026-04-26 17:16 | -1.21060 | 37.21962 | 15561 ft | 329 kts | 44° |
| 2026-04-26 17:16 | -1.19398 | 37.23549 | 16296 ft | 332 kts | 44° |
| 2026-04-26 17:16 | -1.17720 | 37.25156 | 17030 ft | 336 kts | 44° |
| 2026-04-26 17:17 | -1.16029 | 37.26780 | 17778 ft | 339 kts | 45° |
| 2026-04-26 17:17 | -1.14327 | 37.28419 | 18507 ft | 341 kts | 45° |
| 2026-04-26 17:17 | -1.12639 | 37.30047 | 19406 ft | 333 kts | 45° |
| 2026-04-26 17:17 | -1.10996 | 37.31633 | 20159 ft | 333 kts | 45° |
| 2026-04-26 17:18 | -1.09325 | 37.33249 | 20761 ft | 336 kts | 45° |
| 2026-04-26 17:18 | -1.07616 | 37.34903 | 21330 ft | 341 kts | 45° |
| 2026-04-26 17:18 | -1.05927 | 37.36538 | 21905 ft | 344 kts | 45° |
| 2026-04-26 17:18 | -1.04194 | 37.38215 | 22522 ft | 347 kts | 44° |
| 2026-04-26 17:19 | -1.00688 | 37.41608 | 23726 ft | 354 kts | 44° |
| 2026-04-26 17:19 | -0.98910 | 37.43330 | 24216 ft | 358 kts | 44° |
| 2026-04-26 17:19 | -0.97101 | 37.45081 | 24546 ft | 368 kts | 44° |
| 2026-04-26 17:20 | -0.95246 | 37.46878 | 24930 ft | 374 kts | 44° |
| 2026-04-26 17:20 | -0.94004 | 37.48080 | 25280 ft | 376 kts | 45° |
| 2026-04-26 17:20 | -0.91484 | 37.50519 | 26040 ft | 378 kts | 45° |
| 2026-04-26 17:20 | -0.89589 | 37.52353 | 26577 ft | 381 kts | 45° |
| 2026-04-26 17:21 | -0.87669 | 37.54212 | 26930 ft | 389 kts | 45° |
| 2026-04-26 17:21 | -0.85693 | 37.56126 | 27168 ft | 401 kts | 45° |
| 2026-04-26 17:21 | -0.83688 | 37.58067 | 27452 ft | 411 kts | 45° |
| 2026-04-26 17:21 | -0.81610 | 37.60079 | 27736 ft | 420 kts | 45° |
| 2026-04-26 17:22 | -0.79493 | 37.62129 | 28111 ft | 426 kts | 45° |
| 2026-04-26 17:22 | -0.77362 | 37.64191 | 28625 ft | 428 kts | 45° |
| 2026-04-26 17:22 | -0.75215 | 37.66268 | 29176 ft | 431 kts | 45° |
| 2026-04-26 17:22 | -0.73054 | 37.68360 | 29651 ft | 434 kts | 45° |
| 2026-04-26 17:23 | -0.70874 | 37.70469 | 30114 ft | 438 kts | 45° |
| 2026-04-26 17:23 | -0.68675 | 37.72598 | 30501 ft | 442 kts | 45° |
| 2026-04-26 17:23 | -0.66458 | 37.74744 | 30897 ft | 445 kts | 45° |
| 2026-04-26 17:23 | -0.64228 | 37.76902 | 31319 ft | 447 kts | 45° |
| 2026-04-26 17:24 | -0.61988 | 37.79070 | 31729 ft | 449 kts | 45° |
| 2026-04-26 17:24 | -0.59736 | 37.81249 | 32113 ft | 452 kts | 45° |
| 2026-04-26 17:24 | -0.57473 | 37.83439 | 32506 ft | 454 kts | 45° |
| 2026-04-26 17:24 | -0.55198 | 37.85641 | 32872 ft | 456 kts | 45° |
| 2026-04-26 17:25 | -0.52911 | 37.87854 | 33228 ft | 459 kts | 45° |
| 2026-04-26 17:25 | -0.50613 | 37.90079 | 33574 ft | 461 kts | 45° |
| 2026-04-26 17:25 | -0.48333 | 37.92285 | 33899 ft | 463 kts | 44° |
| 2026-04-26 17:25 | -0.46012 | 37.94532 | 34199 ft | 465 kts | 44° |
| 2026-04-26 17:26 | -0.43687 | 37.96782 | 34477 ft | 467 kts | 44° |
| 2026-04-26 17:26 | -0.41350 | 37.99044 | 34774 ft | 468 kts | 44° |
| 2026-04-26 17:26 | -0.39001 | 38.01317 | 34914 ft | 473 kts | 44° |
| 2026-04-26 17:26 | -0.36628 | 38.03613 | 34950 ft | 475 kts | 44° |
| 2026-04-26 17:27 | -0.31898 | 38.08190 | 34992 ft | 471 kts | 44° |
| 2026-04-26 17:27 | -0.27214 | 38.12723 | 34976 ft | 468 kts | 44° |
| 2026-04-26 17:28 | -0.22537 | 38.17249 | 34973 ft | 467 kts | 44° |
| 2026-04-26 17:28 | -0.17875 | 38.21761 | 34965 ft | 466 kts | 44° |
| 2026-04-26 17:29 | -0.13999 | 38.25512 | 34966 ft | 467 kts | 44° |
| 2026-04-26 17:29 | -0.08568 | 38.30767 | 34956 ft | 468 kts | 44° |
| 2026-04-26 17:30 | -0.03890 | 38.35294 | 34958 ft | 469 kts | 44° |
| 2026-04-26 17:30 | 0.00806 | 38.39838 | 34945 ft | 470 kts | 44° |
| 2026-04-26 17:31 | 0.05507 | 38.44387 | 34947 ft | 471 kts | 44° |
| 2026-04-26 17:31 | 0.10224 | 38.48952 | 34941 ft | 472 kts | 44° |
| 2026-04-26 17:32 | 0.14955 | 38.53530 | 34937 ft | 473 kts | 44° |
| 2026-04-26 17:32 | 0.19681 | 38.58104 | 34938 ft | 473 kts | 44° |
| 2026-04-26 17:33 | 0.24407 | 38.62677 | 34940 ft | 473 kts | 44° |
| 2026-04-26 17:34 | 0.31458 | 38.69500 | 34933 ft | 472 kts | 44° |
| 2026-04-26 17:34 | 0.36182 | 38.74072 | 34935 ft | 472 kts | 44° |
| 2026-04-26 17:35 | 0.40897 | 38.78635 | 34930 ft | 472 kts | 44° |
| 2026-04-26 17:35 | 0.45611 | 38.83197 | 34932 ft | 471 kts | 44° |
| 2026-04-26 17:36 | 0.50299 | 38.87734 | 34929 ft | 471 kts | 44° |
| 2026-04-26 17:36 | 0.55012 | 38.92296 | 34928 ft | 472 kts | 44° |
| 2026-04-26 17:37 | 0.59727 | 38.96860 | 34926 ft | 472 kts | 44° |
| 2026-04-26 17:37 | 0.64445 | 39.01426 | 34923 ft | 472 kts | 44° |
| 2026-04-26 17:38 | 0.71527 | 39.08280 | 34918 ft | 472 kts | 44° |
| 2026-04-26 17:38 | 0.76251 | 39.12853 | 34917 ft | 473 kts | 44° |
| 2026-04-26 17:39 | 0.80969 | 39.17419 | 34918 ft | 473 kts | 44° |
| 2026-04-26 17:39 | 0.85693 | 39.21992 | 34918 ft | 473 kts | 44° |
| 2026-04-26 17:40 | 0.88820 | 39.25020 | 34913 ft | 471 kts | 44° |
| 2026-04-26 17:40 | 0.92681 | 39.28757 | 34903 ft | 459 kts | 44° |
| 2026-04-26 17:40 | 0.94999 | 39.31001 | 34906 ft | 458 kts | 44° |
| 2026-04-26 17:41 | 0.99583 | 39.35439 | 34922 ft | 459 kts | 44° |
| 2026-04-26 17:41 | 1.04142 | 39.39853 | 34921 ft | 459 kts | 44° |
| 2026-04-26 17:42 | 1.08738 | 39.44303 | 34922 ft | 460 kts | 44° |
| 2026-04-26 17:42 | 1.13337 | 39.48756 | 34921 ft | 460 kts | 44° |
| 2026-04-26 17:43 | 1.17938 | 39.53211 | 34922 ft | 460 kts | 44° |
| 2026-04-26 17:43 | 1.22531 | 39.57659 | 34925 ft | 460 kts | 44° |
| 2026-04-26 17:44 | 1.27131 | 39.62113 | 34925 ft | 460 kts | 44° |
| 2026-04-26 17:44 | 1.31728 | 39.66566 | 34927 ft | 460 kts | 44° |
| 2026-04-26 17:45 | 1.36335 | 39.71027 | 34928 ft | 460 kts | 44° |
| 2026-04-26 17:45 | 1.40903 | 39.75452 | 34929 ft | 460 kts | 44° |
| 2026-04-26 17:46 | 1.45501 | 39.79906 | 34933 ft | 460 kts | 44° |
| 2026-04-26 17:46 | 1.50092 | 39.84353 | 34931 ft | 460 kts | 44° |
| 2026-04-26 17:47 | 1.53166 | 39.87331 | 34922 ft | 460 kts | 44° |
| 2026-04-26 17:47 | 1.59281 | 39.93256 | 34907 ft | 460 kts | 44° |
| 2026-04-26 17:48 | 1.63874 | 39.97706 | 34897 ft | 459 kts | 44° |
| 2026-04-26 17:48 | 1.68465 | 40.02156 | 34885 ft | 459 kts | 44° |
| 2026-04-26 17:49 | 1.73076 | 40.06572 | 34884 ft | 457 kts | 40° |
| 2026-04-26 17:49 | 1.75754 | 40.08280 | 34879 ft | 458 kts | 25° |
| 2026-04-26 17:49 | 1.78802 | 40.09196 | 34869 ft | 458 kts | 11° |
| 2026-04-26 17:50 | 1.85047 | 40.10286 | 34892 ft | 459 kts | 12° |
| 2026-04-26 17:50 | 1.91340 | 40.11463 | 34914 ft | 462 kts | 12° |
| 2026-04-26 17:51 | 1.97664 | 40.12694 | 34928 ft | 464 kts | 12° |
| 2026-04-26 17:51 | 2.04013 | 40.13942 | 34940 ft | 465 kts | 12° |
| 2026-04-26 17:52 | 2.10367 | 40.15190 | 34957 ft | 466 kts | 12° |
| 2026-04-26 17:52 | 2.15652 | 40.16227 | 34953 ft | 465 kts | 12° |
| 2026-04-26 17:53 | 2.21998 | 40.17471 | 34960 ft | 464 kts | 12° |
| 2026-04-26 17:54 | 2.31492 | 40.19333 | 34960 ft | 462 kts | 12° |
| 2026-04-26 17:54 | 2.37787 | 40.20568 | 34966 ft | 461 kts | 12° |
| 2026-04-26 17:55 | 2.44074 | 40.21802 | 34959 ft | 460 kts | 12° |
| 2026-04-26 17:55 | 2.50348 | 40.23033 | 34963 ft | 459 kts | 12° |
| 2026-04-26 17:56 | 2.56615 | 40.24263 | 34967 ft | 458 kts | 12° |
| 2026-04-26 17:57 | 2.69005 | 40.27129 | 34973 ft | 458 kts | 15° |
| 2026-04-26 17:57 | 2.75213 | 40.28622 | 34969 ft | 459 kts | 14° |
| 2026-04-26 17:58 | 2.87661 | 40.31561 | 34973 ft | 460 kts | 14° |
| 2026-04-26 17:59 | 2.97019 | 40.33761 | 34974 ft | 460 kts | 14° |
| 2026-04-26 17:59 | 3.03245 | 40.35227 | 34978 ft | 460 kts | 14° |
| 2026-04-26 18:00 | 3.09436 | 40.36684 | 34980 ft | 460 kts | 14° |
| 2026-04-26 18:00 | 3.15664 | 40.38150 | 34983 ft | 459 kts | 14° |
| 2026-04-26 18:01 | 3.21888 | 40.39616 | 34983 ft | 459 kts | 14° |
| 2026-04-26 18:01 | 3.28112 | 40.41082 | 34982 ft | 459 kts | 14° |
| 2026-04-26 18:02 | 3.33281 | 40.42299 | 34984 ft | 459 kts | 14° |
| 2026-04-26 18:02 | 3.40546 | 40.44011 | 34989 ft | 458 kts | 14° |
| 2026-04-26 18:03 | 3.46718 | 40.45465 | 34988 ft | 458 kts | 14° |
| 2026-04-26 18:03 | 3.52921 | 40.46927 | 34992 ft | 458 kts | 14° |
| 2026-04-26 18:04 | 3.59133 | 40.48391 | 34999 ft | 458 kts | 14° |
| 2026-04-26 18:05 | 3.68456 | 40.50588 | 34997 ft | 459 kts | 14° |
| 2026-04-26 18:05 | 3.74665 | 40.52052 | 35002 ft | 459 kts | 14° |
| 2026-04-26 18:06 | 3.80883 | 40.53519 | 35004 ft | 459 kts | 14° |
| 2026-04-26 18:06 | 3.87104 | 40.54986 | 35005 ft | 459 kts | 14° |
| 2026-04-26 18:07 | 3.93327 | 40.56454 | 35007 ft | 459 kts | 14° |
| 2026-04-26 18:07 | 3.99508 | 40.57912 | 35010 ft | 459 kts | 14° |
| 2026-04-26 18:08 | 4.05744 | 40.59328 | 35010 ft | 459 kts | 13° |
| 2026-04-26 18:08 | 4.11989 | 40.60686 | 35013 ft | 459 kts | 13° |
| 2026-04-26 18:09 | 4.18227 | 40.62047 | 35017 ft | 458 kts | 13° |
| 2026-04-26 18:09 | 4.24458 | 40.63417 | 35020 ft | 458 kts | 13° |
| 2026-04-26 18:10 | 4.30683 | 40.64789 | 35019 ft | 458 kts | 13° |
| 2026-04-26 18:10 | 4.36905 | 40.66160 | 35011 ft | 457 kts | 13° |
| 2026-04-26 18:11 | 4.43113 | 40.67528 | 35011 ft | 457 kts | 13° |
| 2026-04-26 18:11 | 4.49292 | 40.68891 | 35011 ft | 457 kts | 13° |
| 2026-04-26 18:12 | 4.55499 | 40.70259 | 35012 ft | 456 kts | 13° |
| 2026-04-26 18:12 | 4.61701 | 40.71627 | 35013 ft | 456 kts | 13° |
| 2026-04-26 18:13 | 4.67897 | 40.72994 | 35021 ft | 456 kts | 13° |
| 2026-04-26 18:13 | 4.74093 | 40.74361 | 35018 ft | 456 kts | 13° |
| 2026-04-26 18:14 | 4.80289 | 40.75726 | 35019 ft | 456 kts | 13° |
| 2026-04-26 18:14 | 4.86489 | 40.77093 | 35023 ft | 456 kts | 13° |
| 2026-04-26 18:15 | 4.92693 | 40.78461 | 35019 ft | 456 kts | 13° |
| 2026-04-26 18:15 | 4.98861 | 40.79822 | 35022 ft | 457 kts | 13° |
| 2026-04-26 18:16 | 5.05076 | 40.81194 | 35025 ft | 457 kts | 13° |
| 2026-04-26 18:16 | 5.14401 | 40.83253 | 35023 ft | 458 kts | 13° |
| 2026-04-26 18:17 | 5.20625 | 40.84627 | 35015 ft | 458 kts | 13° |
| 2026-04-26 18:17 | 5.26850 | 40.86005 | 35014 ft | 458 kts | 13° |
| 2026-04-26 18:18 | 5.33076 | 40.87387 | 35010 ft | 458 kts | 13° |
| 2026-04-26 18:18 | 5.39306 | 40.88770 | 35009 ft | 458 kts | 13° |
| 2026-04-26 18:19 | 5.45538 | 40.90153 | 34998 ft | 458 kts | 13° |
| 2026-04-26 18:19 | 5.51720 | 40.91526 | 34989 ft | 458 kts | 13° |
| 2026-04-26 18:20 | 5.57950 | 40.92909 | 34987 ft | 458 kts | 13° |
| 2026-04-26 18:20 | 5.63165 | 40.94067 | 34989 ft | 458 kts | 13° |
| 2026-04-26 18:21 | 5.70398 | 40.95673 | 34988 ft | 458 kts | 13° |
| 2026-04-26 18:21 | 5.76607 | 40.97054 | 34989 ft | 457 kts | 13° |
| 2026-04-26 18:22 | 5.82834 | 40.98438 | 34989 ft | 458 kts | 13° |
| 2026-04-26 18:22 | 5.89049 | 40.99820 | 34996 ft | 458 kts | 13° |
| 2026-04-26 18:23 | 5.95277 | 41.01205 | 34985 ft | 458 kts | 13° |
| 2026-04-26 18:23 | 6.01465 | 41.02581 | 34992 ft | 458 kts | 13° |
| 2026-04-26 18:24 | 6.07689 | 41.03965 | 34987 ft | 459 kts | 13° |
| 2026-04-26 18:24 | 6.13924 | 41.05353 | 35003 ft | 459 kts | 13° |
| 2026-04-26 18:25 | 6.20165 | 41.06742 | 35008 ft | 459 kts | 13° |
| 2026-04-26 18:25 | 6.26412 | 41.08133 | 35009 ft | 460 kts | 13° |
| 2026-04-26 18:26 | 6.32662 | 41.09524 | 35000 ft | 460 kts | 13° |
| 2026-04-26 18:26 | 6.38917 | 41.10918 | 35004 ft | 460 kts | 13° |
| 2026-04-26 18:27 | 6.45124 | 41.12301 | 35015 ft | 460 kts | 13° |
| 2026-04-26 18:27 | 6.51386 | 41.13696 | 35010 ft | 461 kts | 13° |
| 2026-04-26 18:28 | 6.57648 | 41.15092 | 35013 ft | 461 kts | 13° |
| 2026-04-26 18:28 | 6.63914 | 41.16489 | 35012 ft | 461 kts | 13° |
| 2026-04-26 18:29 | 6.70174 | 41.17886 | 35012 ft | 461 kts | 13° |
| 2026-04-26 18:29 | 6.76446 | 41.19285 | 35012 ft | 461 kts | 13° |
| 2026-04-26 18:30 | 6.82720 | 41.20685 | 35017 ft | 462 kts | 13° |
| 2026-04-26 18:30 | 6.88994 | 41.22086 | 35013 ft | 462 kts | 13° |
| 2026-04-26 18:31 | 6.95273 | 41.23489 | 35018 ft | 462 kts | 13° |
| 2026-04-26 18:31 | 7.01556 | 41.24892 | 35022 ft | 462 kts | 13° |
| 2026-04-26 18:32 | 7.07802 | 41.26288 | 35010 ft | 463 kts | 13° |
| 2026-04-26 18:32 | 7.14091 | 41.27694 | 35012 ft | 463 kts | 13° |
| 2026-04-26 18:33 | 7.20372 | 41.29099 | 35013 ft | 463 kts | 13° |
| 2026-04-26 18:33 | 7.26663 | 41.30506 | 35015 ft | 463 kts | 13° |
| 2026-04-26 18:34 | 7.32955 | 41.31921 | 35019 ft | 463 kts | 13° |
| 2026-04-26 18:34 | 7.39247 | 41.33338 | 35022 ft | 463 kts | 13° |
| 2026-04-26 18:35 | 7.45530 | 41.34754 | 35026 ft | 463 kts | 13° |
| 2026-04-26 18:35 | 7.51819 | 41.36170 | 35016 ft | 463 kts | 13° |
| 2026-04-26 18:36 | 7.58063 | 41.37577 | 35017 ft | 462 kts | 13° |
| 2026-04-26 18:36 | 7.64344 | 41.38993 | 35018 ft | 462 kts | 13° |
| 2026-04-26 18:37 | 7.70612 | 41.40406 | 35020 ft | 462 kts | 13° |
| 2026-04-26 18:37 | 7.76895 | 41.41823 | 35021 ft | 462 kts | 13° |
| 2026-04-26 18:38 | 7.83171 | 41.43238 | 35018 ft | 462 kts | 13° |
| 2026-04-26 18:38 | 7.89449 | 41.44655 | 35021 ft | 462 kts | 13° |
| 2026-04-26 18:39 | 7.95730 | 41.46073 | 35019 ft | 462 kts | 13° |
| 2026-04-26 18:39 | 8.02013 | 41.47492 | 35015 ft | 462 kts | 13° |
| 2026-04-26 18:40 | 8.08290 | 41.48909 | 35013 ft | 463 kts | 13° |
| 2026-04-26 18:40 | 8.14577 | 41.50330 | 35013 ft | 463 kts | 13° |
| 2026-04-26 18:41 | 8.20824 | 41.51742 | 35015 ft | 463 kts | 13° |
| 2026-04-26 18:41 | 8.27112 | 41.53164 | 35016 ft | 463 kts | 13° |
| 2026-04-26 18:42 | 8.33399 | 41.54586 | 35010 ft | 462 kts | 13° |
| 2026-04-26 18:42 | 8.38662 | 41.55778 | 35016 ft | 462 kts | 13° |
| 2026-04-26 18:43 | 8.44898 | 41.57192 | 35013 ft | 462 kts | 13° |
| 2026-04-26 18:43 | 8.51169 | 41.58616 | 35026 ft | 462 kts | 13° |
| 2026-04-26 18:44 | 8.57451 | 41.60042 | 35021 ft | 462 kts | 13° |
| 2026-04-26 18:44 | 8.63732 | 41.61468 | 35024 ft | 462 kts | 13° |
| 2026-04-26 18:45 | 8.70023 | 41.62897 | 35023 ft | 462 kts | 13° |
| 2026-04-26 18:45 | 8.76298 | 41.64323 | 35036 ft | 462 kts | 13° |
| 2026-04-26 18:46 | 8.82589 | 41.65753 | 35038 ft | 463 kts | 13° |
| 2026-04-26 18:46 | 8.88867 | 41.67181 | 35043 ft | 463 kts | 13° |
| 2026-04-26 18:47 | 8.95111 | 41.68601 | 35067 ft | 462 kts | 13° |
| 2026-04-26 18:47 | 9.01394 | 41.70031 | 35055 ft | 462 kts | 13° |
| 2026-04-26 18:48 | 9.07676 | 41.71461 | 35077 ft | 463 kts | 13° |
| 2026-04-26 18:48 | 9.13961 | 41.72893 | 35074 ft | 463 kts | 13° |
| 2026-04-26 18:49 | 9.20250 | 41.74326 | 35076 ft | 463 kts | 13° |
| 2026-04-26 18:49 | 9.26525 | 41.75755 | 35087 ft | 462 kts | 13° |
| 2026-04-26 18:50 | 9.32815 | 41.77190 | 35090 ft | 463 kts | 13° |
| 2026-04-26 18:50 | 9.39101 | 41.78623 | 35076 ft | 462 kts | 13° |
| 2026-04-26 18:51 | 9.45370 | 41.80054 | 35070 ft | 462 kts | 13° |
| 2026-04-26 18:51 | 9.51591 | 41.81474 | 35056 ft | 461 kts | 13° |
| 2026-04-26 18:52 | 9.57843 | 41.82902 | 35050 ft | 460 kts | 13° |
| 2026-04-26 18:52 | 9.63958 | 41.84769 | 35015 ft | 459 kts | 22° |
| 2026-04-26 18:53 | 9.69622 | 41.87771 | 34993 ft | 459 kts | 32° |
| 2026-04-26 18:53 | 9.74951 | 41.91342 | 34996 ft | 459 kts | 33° |
| 2026-04-26 18:54 | 9.80263 | 41.94931 | 34981 ft | 459 kts | 33° |
| 2026-04-26 18:54 | 9.85602 | 41.98508 | 34976 ft | 460 kts | 32° |
| 2026-04-26 18:55 | 9.90941 | 42.02068 | 34497 ft | 466 kts | 32° |
| 2026-04-26 18:55 | 9.93657 | 42.03878 | 34031 ft | 464 kts | 32° |
| 2026-04-26 18:55 | 9.96353 | 42.05674 | 33503 ft | 462 kts | 32° |
| 2026-04-26 18:56 | 9.99033 | 42.07460 | 32973 ft | 459 kts | 33° |
| 2026-04-26 18:56 | 10.01691 | 42.09232 | 32463 ft | 455 kts | 33° |
| 2026-04-26 18:56 | 10.04320 | 42.10985 | 31975 ft | 451 kts | 33° |
| 2026-04-26 18:56 | 10.06934 | 42.12729 | 31497 ft | 448 kts | 33° |
| 2026-04-26 18:57 | 10.09536 | 42.14465 | 31006 ft | 445 kts | 33° |
| 2026-04-26 18:57 | 10.11244 | 42.15605 | 30687 ft | 443 kts | 34° |
| 2026-04-26 18:57 | 10.14675 | 42.17895 | 30033 ft | 439 kts | 34° |
| 2026-04-26 18:57 | 10.17214 | 42.19590 | 29488 ft | 436 kts | 34° |
| 2026-04-26 18:58 | 10.19739 | 42.21277 | 28958 ft | 432 kts | 34° |
| 2026-04-26 18:58 | 10.22242 | 42.22949 | 28457 ft | 428 kts | 34° |
| 2026-04-26 18:58 | 10.24722 | 42.24606 | 27990 ft | 425 kts | 34° |
| 2026-04-26 18:58 | 10.27147 | 42.26227 | 27527 ft | 421 kts | 34° |
| 2026-04-26 18:59 | 10.29586 | 42.27856 | 27060 ft | 418 kts | 34° |
| 2026-04-26 18:59 | 10.32005 | 42.29473 | 26626 ft | 415 kts | 34° |
| 2026-04-26 18:59 | 10.34407 | 42.31079 | 26152 ft | 412 kts | 35° |
| 2026-04-26 18:59 | 10.36793 | 42.32675 | 25722 ft | 409 kts | 35° |
| 2026-04-26 19:00 | 10.39159 | 42.34258 | 25274 ft | 407 kts | 35° |
| 2026-04-26 19:00 | 10.41520 | 42.35837 | 24830 ft | 405 kts | 35° |
| 2026-04-26 19:00 | 10.43871 | 42.37410 | 24392 ft | 404 kts | 35° |
| 2026-04-26 19:00 | 10.46214 | 42.38979 | 23939 ft | 402 kts | 35° |
| 2026-04-26 19:01 | 10.48550 | 42.40542 | 23512 ft | 401 kts | 35° |
| 2026-04-26 19:01 | 10.50873 | 42.42099 | 22995 ft | 400 kts | 35° |
| 2026-04-26 19:01 | 10.53190 | 42.43650 | 22540 ft | 397 kts | 35° |
| 2026-04-26 19:01 | 10.55490 | 42.45191 | 22107 ft | 394 kts | 35° |
| 2026-04-26 19:02 | 10.57775 | 42.46721 | 21678 ft | 392 kts | 35° |
| 2026-04-26 19:02 | 10.60042 | 42.48241 | 21234 ft | 389 kts | 35° |
| 2026-04-26 19:02 | 10.62295 | 42.49750 | 20814 ft | 386 kts | 35° |
| 2026-04-26 19:02 | 10.63773 | 42.50740 | 20535 ft | 384 kts | 35° |
| 2026-04-26 19:03 | 10.66800 | 42.52647 | 19971 ft | 381 kts | 30° |
| 2026-04-26 19:03 | 10.69171 | 42.53847 | 19551 ft | 380 kts | 27° |
| 2026-04-26 19:03 | 10.71564 | 42.54973 | 19127 ft | 378 kts | 26° |
| 2026-04-26 19:03 | 10.73939 | 42.56086 | 18707 ft | 376 kts | 27° |
| 2026-04-26 19:04 | 10.76301 | 42.57211 | 18274 ft | 374 kts | 27° |
| 2026-04-26 19:04 | 10.78643 | 42.58346 | 17792 ft | 371 kts | 27° |
| 2026-04-26 19:04 | 10.80961 | 42.59481 | 17361 ft | 368 kts | 27° |
| 2026-04-26 19:04 | 10.83255 | 42.60612 | 16936 ft | 364 kts | 27° |
| 2026-04-26 19:05 | 10.87776 | 42.62848 | 16113 ft | 358 kts | 27° |
| 2026-04-26 19:05 | 10.89977 | 42.63937 | 15713 ft | 355 kts | 27° |
| 2026-04-26 19:05 | 10.92188 | 42.65030 | 15311 ft | 352 kts | 27° |
| 2026-04-26 19:06 | 10.94387 | 42.66118 | 14898 ft | 349 kts | 27° |
| 2026-04-26 19:06 | 10.96557 | 42.67191 | 14507 ft | 346 kts | 27° |
| 2026-04-26 19:06 | 10.98716 | 42.68258 | 14117 ft | 344 kts | 27° |
| 2026-04-26 19:06 | 11.00862 | 42.69318 | 13732 ft | 341 kts | 27° |
| 2026-04-26 19:07 | 11.03000 | 42.70374 | 13265 ft | 339 kts | 27° |
| 2026-04-26 19:07 | 11.05117 | 42.71421 | 12862 ft | 337 kts | 27° |
| 2026-04-26 19:07 | 11.07221 | 42.72462 | 12436 ft | 335 kts | 27° |
| 2026-04-26 19:07 | 11.09315 | 42.73496 | 12020 ft | 333 kts | 27° |
| 2026-04-26 19:08 | 11.11398 | 42.74526 | 11595 ft | 332 kts | 26° |
| 2026-04-26 19:08 | 11.13450 | 42.75540 | 11196 ft | 330 kts | 27° |
| 2026-04-26 19:08 | 11.15501 | 42.76555 | 10830 ft | 327 kts | 26° |
| 2026-04-26 19:08 | 11.17546 | 42.77566 | 10459 ft | 324 kts | 26° |
| 2026-04-26 19:09 | 11.19564 | 42.78563 | 10120 ft | 320 kts | 26° |
| 2026-04-26 19:09 | 11.21557 | 42.79549 | 9841 ft | 315 kts | 26° |
| 2026-04-26 19:09 | 11.23509 | 42.80515 | 9699 ft | 312 kts | 26° |
| 2026-04-26 19:09 | 11.25453 | 42.81476 | 9646 ft | 308 kts | 26° |
| 2026-04-26 19:10 | 11.27377 | 42.82429 | 9447 ft | 302 kts | 26° |
| 2026-04-26 19:10 | 11.29197 | 42.83330 | 9038 ft | 284 kts | 26° |
| 2026-04-26 19:10 | 11.30950 | 42.84197 | 8401 ft | 276 kts | 27° |
| 2026-04-26 19:10 | 11.32657 | 42.85042 | 7896 ft | 267 kts | 27° |
| 2026-04-26 19:11 | 11.34333 | 42.85873 | 7653 ft | 270 kts | 27° |
| 2026-04-26 19:11 | 11.36007 | 42.86703 | 7339 ft | 270 kts | 28° |
| 2026-04-26 19:11 | 11.37684 | 42.87534 | 7038 ft | 265 kts | 28° |
| 2026-04-26 19:11 | 11.39327 | 42.88347 | 6756 ft | 261 kts | 27° |
| 2026-04-26 19:12 | 11.40943 | 42.89149 | 6472 ft | 256 kts | 27° |
| 2026-04-26 19:12 | 11.42558 | 42.89837 | 6176 ft | 248 kts | 13° |
| 2026-04-26 19:12 | 11.44266 | 42.89911 | 5881 ft | 244 kts | 1° |
| 2026-04-26 19:12 | 11.45962 | 42.89900 | 5677 ft | 242 kts | 4° |
| 2026-04-26 19:13 | 11.47634 | 42.89923 | 5361 ft | 238 kts | 4° |
| 2026-04-26 19:13 | 11.49271 | 42.89945 | 5097 ft | 232 kts | 4° |
| 2026-04-26 19:13 | 11.50859 | 42.89967 | 4856 ft | 225 kts | 4° |
| 2026-04-26 19:13 | 11.52393 | 42.89987 | 4674 ft | 215 kts | 4° |
| 2026-04-26 19:14 | 11.53773 | 42.90312 | 4416 ft | 196 kts | 36° |
| 2026-04-26 19:14 | 11.54641 | 42.91294 | 4201 ft | 182 kts | 63° |
| 2026-04-26 19:14 | 11.55042 | 42.92462 | 3988 ft | 169 kts | 86° |
| 2026-04-26 19:14 | 11.55053 | 42.92864 | 3923 ft | 167 kts | 92° |
| 2026-04-26 19:15 | 11.55010 | 42.94820 | 3689 ft | 160 kts | 91° |
| 2026-04-26 19:15 | 11.55001 | 42.95912 | 3499 ft | 150 kts | 91° |
| 2026-04-26 19:15 | 11.54989 | 42.96984 | 3359 ft | 152 kts | 91° |
| 2026-04-26 19:15 | 11.54975 | 42.98066 | 3170 ft | 152 kts | 91° |
| 2026-04-26 19:16 | 11.54963 | 42.99136 | 2951 ft | 150 kts | 91° |
| 2026-04-26 19:16 | 11.54949 | 43.00198 | 2779 ft | 150 kts | 91° |
| 2026-04-26 19:16 | 11.54935 | 43.01243 | 2597 ft | 149 kts | 91° |
| 2026-04-26 19:16 | 11.54921 | 43.02299 | 2364 ft | 147 kts | 91° |
| 2026-04-26 19:17 | 11.54906 | 43.03355 | 2175 ft | 152 kts | 90° |
| 2026-04-26 19:17 | 11.54892 | 43.04438 | 1970 ft | 153 kts | 91° |
| 2026-04-26 19:17 | 11.54877 | 43.05517 | 1784 ft | 152 kts | 90° |
| 2026-04-26 19:17 | 11.54864 | 43.06587 | 1573 ft | 149 kts | 90° |
| 2026-04-26 19:18 | 11.54844 | 43.07629 | 1409 ft | 146 kts | 91° |
| 2026-04-26 19:18 | 11.54816 | 43.08668 | 1245 ft | 147 kts | 92° |
| 2026-04-26 19:18 | 11.54783 | 43.09708 | 1113 ft | 147 kts | 90° |
| 2026-04-26 19:18 | 11.54800 | 43.10765 | 916 ft | 150 kts | 89° |
| 2026-04-26 19:19 | 11.54788 | 43.11840 | 661 ft | 152 kts | 90° |
| 2026-04-26 19:19 | 11.54783 | 43.12912 | 426 ft | 151 kts | 90° |
| 2026-04-26 19:19 | 11.54762 | 43.13982 | 223 ft | 151 kts | 90° |
| 2026-04-26 19:19 | 11.54747 | 43.15030 | 76 ft | 140 kts | 91° |
| 2026-04-26 19:20 | 11.54734 | 43.15885 | 66 ft | 91 kts | 91° |
| 2026-04-26 19:20 | 11.54730 | 43.16209 | 59 ft | 47 kts | 91° |
| 2026-04-26 19:20 | 11.54728 | 43.16347 | 59 ft | 14 kts | 91° |
| 2026-04-26 19:20 | 11.54726 | 43.16453 | 59 ft | 9 kts | 91° |
| 2026-04-26 19:21 | 11.54700 | 43.16505 | 57 ft | 9 kts | 150° |
| 2026-04-26 19:21 | 11.54644 | 43.16514 | 63 ft | 3 kts | 175° |
| 2026-04-26 19:21 | 11.54611 | 43.16514 | 58 ft | 10 kts | 180° |
| 2026-04-26 19:21 | 11.54558 | 43.16464 | 57 ft | 12 kts | 257° |
| 2026-04-26 19:22 | 11.54555 | 43.16382 | 56 ft | 12 kts | 270° |
| 2026-04-26 19:22 | 11.54556 | 43.16299 | 57 ft | 12 kts | 272° |
| 2026-04-26 19:22 | 11.54559 | 43.16217 | 59 ft | 12 kts | 271° |
| 2026-04-26 19:22 | 11.54559 | 43.16135 | 59 ft | 12 kts | 270° |
| 2026-04-26 19:23 | 11.54560 | 43.16052 | 58 ft | 12 kts | 271° |
| 2026-04-26 19:23 | 11.54561 | 43.15969 | 62 ft | 12 kts | 271° |
| 2026-04-26 19:23 | 11.54563 | 43.15869 | 64 ft | 20 kts | 271° |
| 2026-04-26 19:23 | 11.54565 | 43.15719 | 62 ft | 21 kts | 270° |
| 2026-04-26 19:24 | 11.54567 | 43.15569 | 58 ft | 21 kts | 271° |
| 2026-04-26 19:24 | 11.54569 | 43.15418 | 58 ft | 21 kts | 270° |
| 2026-04-26 19:24 | 11.54580 | 43.15171 | 63 ft | 9 kts | 302° |
| 2026-04-26 19:25 | 11.54638 | 43.15148 | 58 ft | 9 kts | 355° |
| 2026-04-26 19:25 | 11.54660 | 43.15147 | 61 ft | 11 kts | 358° |
| 2026-04-26 19:25 | 11.54891 | 43.15146 | 57 ft | 20 kts | 1° |
| 2026-04-26 19:25 | 11.54984 | 43.15148 | 59 ft | 3 kts | 1° |
| 2026-04-26 19:26 | 11.55006 | 43.15145 | 56 ft | 1 kts | 332° |
| 2026-04-26 19:26 | 11.55011 | 43.15127 | 55 ft | 8 kts | 271° |
| 2026-04-26 19:26 | 11.55006 | 43.15057 | 58 ft | 10 kts | 272° |
| 2026-04-26 19:26 | 11.55008 | 43.14993 | 64 ft | 8 kts | 269° |
| 2026-04-26 19:27 | 11.55008 | 43.14935 | 64 ft | 9 kts | 269° |
| 2026-04-26 19:27 | 11.55008 | 43.14886 | 64 ft | 6 kts | 271° |
| 2026-04-26 19:27 | 11.55016 | 43.14847 | 60 ft | 6 kts | 313° |
| 2026-04-26 19:27 | 11.55061 | 43.14842 | 61 ft | 7 kts | 0° |
| 2026-04-26 19:28 | 11.55092 | 43.14842 | 62 ft | 2 kts | 360° |
| 2026-04-26 19:28 | 11.55095 | 43.14842 | 61 ft | 0 kts | 360° |